Time;durP1;ratioP1;P1;durP2;ratioP2;P2;SDS_P1;SDS_P2;PMS_P1;PMS_P2;Temp;Humidity;BMP_temperature;BMP_pressure;BME280_temperature;BME280_humidity;BME280_pressure;Samples;Min_cycle;Max_cycle;Signal;HPM_P1;HPM_P2
2022/10/04 00:01:59;;;;;;;2.17;1.98;;;;;;;10.84;90.47;102306.00;4980787;28;20472;-88
2022/10/04 00:04:29;;;;;;;2.25;2.00;;;;;;;10.83;90.55;102299.09;4988201;23;20070;-89
2022/10/04 00:07:00;;;;;;;2.10;1.90;;;;;;;10.81;90.71;102304.28;4961518;29;20035;-89
2022/10/04 00:09:37;;;;;;;2.90;1.90;;;;;;;10.79;90.27;102311.19;4961889;28;20023;-89
2022/10/04 00:12:18;;;;;;;;;;;;;;;10.80;90.53;102307.72;4962233;28;20034;-89
2022/10/04 00:14:43;;;;;;;2.95;2.10;;;;;;;10.79;90.64;102305.13;4961196;29;19920;-88
2022/10/04 00:17:34;;;;;;;2.80;2.13;;;;;;;10.78;90.65;102299.03;4961557;28;20829;-88
2022/10/04 00:20:00;;;;;;;2.00;1.90;;;;;;;10.77;90.75;102291.25;4961476;28;20379;-89
2022/10/04 00:22:27;;;;;;;2.03;1.92;;;;;;;10.77;90.69;102289.53;4961754;28;20056;-89
2022/10/04 00:25:12;;;;;;;2.33;2.10;;;;;;;10.76;90.65;102285.19;4961538;28;20030;-89
2022/10/04 00:27:58;;;;;;;2.00;1.90;;;;;;;10.76;90.80;102289.53;4961829;28;20373;-88
2022/10/04 00:30:24;;;;;;;;;;;;;;;10.73;90.96;102277.38;4970453;28;20085;-89
2022/10/04 00:33:01;;;;;;;2.17;1.98;;;;;;;10.68;90.62;102270.44;4980973;28;20338;-89
2022/10/04 00:35:26;;;;;;;2.10;1.90;;;;;;;10.68;90.89;102275.63;4981028;28;20108;-89
2022/10/04 00:38:00;;;;;;;2.17;1.90;;;;;;;10.64;90.89;102269.50;4980583;28;20070;-88
2022/10/04 00:40:45;;;;;;;2.90;1.98;;;;;;;10.62;90.78;102276.44;4980777;28;20027;-89
2022/10/04 00:43:22;;;;;;;2.10;1.90;;;;;;;10.59;90.75;102266.03;4980636;28;20379;-88
2022/10/04 00:45:54;;;;;;;2.58;2.05;;;;;;;10.55;90.87;102266.84;4980933;28;20109;-89
2022/10/04 00:48:38;;;;;;;2.63;2.08;;;;;;;10.55;90.91;102280.72;4979463;28;20030;-89
2022/10/04 00:51:26;;;;;;;3.33;2.08;;;;;;;10.54;90.96;102272.91;4977478;28;20023;-89
2022/10/04 00:54:17;;;;;;;2.30;2.03;;;;;;;10.49;91.00;102275.47;4977556;28;20026;-88
2022/10/04 00:56:51;;;;;;;2.22;2.03;;;;;;;10.48;91.10;102278.91;4977602;28;20070;-89
2022/10/04 00:59:28;;;;;;;2.58;2.00;;;;;;;10.48;91.12;102277.19;4977638;28;20101;-88
2022/10/04 01:02:01;;;;;;;2.55;1.90;;;;;;;10.47;90.86;102264.22;4977730;28;20027;-88
2022/10/04 01:04:39;;;;;;;2.17;1.98;;;;;;;10.47;91.35;102259.88;4976999;28;20377;-89
2022/10/04 01:07:07;;;;;;;2.00;1.90;;;;;;;10.46;91.16;102255.53;4977560;28;20049;-89
2022/10/04 01:09:38;;;;;;;2.67;2.20;;;;;;;10.47;91.31;102240.84;4977518;28;20085;-89
2022/10/04 01:12:12;;;;;;;2.53;2.20;;;;;;;10.46;91.30;102237.38;4976787;28;20085;-89
2022/10/04 01:15:01;;;;;;;2.80;2.25;;;;;;;10.43;91.35;102232.16;4977408;28;20069;-89
2022/10/04 01:17:26;;;;;;;2.42;2.08;;;;;;;10.42;91.29;102227.81;4977250;28;20027;-89
2022/10/04 01:19:53;;;;;;;2.83;1.97;;;;;;;10.39;91.27;102232.13;4976775;28;20490;-89
2022/10/04 01:22:36;;;;;;;2.60;2.20;;;;;;;10.36;91.36;102238.13;4976855;28;20027;-89
2022/10/04 01:25:02;;;;;;;2.58;2.10;;;;;;;10.33;91.43;102238.97;4976155;28;20034;-89
2022/10/04 01:27:40;;;;;;;3.30;2.40;;;;;;;10.32;91.32;102232.06;4976645;28;20038;-89
2022/10/04 01:30:10;;;;;;;2.38;2.17;;;;;;;10.28;91.53;102227.69;4977223;28;20019;-89
2022/10/04 01:32:37;;;;;;;2.30;2.10;;;;;;;10.25;91.08;102225.06;4977179;28;20055;-89
2022/10/04 01:35:03;;;;;;;2.63;1.90;;;;;;;10.22;91.35;102224.16;4976527;28;20050;-89
2022/10/04 01:37:28;;;;;;;2.28;2.08;;;;;;;10.18;91.52;102231.06;4976609;28;20031;-89
2022/10/04 01:39:54;;;;;;;3.03;2.37;;;;;;;10.17;91.38;102231.91;4976204;28;20034;-88
2022/10/04 01:42:26;;;;;;;2.40;2.20;;;;;;;10.13;91.59;102228.44;4976800;28;20027;-89
2022/10/04 01:45:12;;;;;;;2.63;2.30;;;;;;;10.10;91.48;102222.34;4976675;28;20054;-89
2022/10/04 01:47:50;;;;;;;3.05;2.40;;;;;;;10.07;91.54;102211.94;4976100;28;20026;-89
2022/10/04 01:50:23;;;;;;;2.30;2.10;;;;;;;10.05;91.36;102209.34;4976917;28;20031;-89
2022/10/04 01:52:54;;;;;;;2.88;2.20;;;;;;;10.04;91.54;102210.19;4976524;28;20025;-89
2022/10/04 01:55:24;;;;;;;2.88;2.30;;;;;;;10.04;91.62;102211.06;4976341;28;20089;-88
2022/10/04 01:58:16;;;;;;;3.17;2.20;;;;;;;10.05;91.74;102211.94;4976513;28;20097;-88
2022/10/04 02:00:54;;;;;;;2.83;2.28;;;;;;;10.05;91.60;102209.34;4974694;28;20023;-89
2022/10/04 02:03:28;;;;;;;2.30;2.10;;;;;;;10.04;91.68;102203.28;4976360;28;20086;-88
2022/10/04 02:05:59;;;;;;;3.20;2.20;;;;;;;10.04;91.88;102208.44;4975960;28;20059;-89
2022/10/04 02:08:28;;;;;;;2.30;2.10;;;;;;;10.03;91.74;102200.66;4975983;28;20026;-89
2022/10/04 02:10:55;;;;;;;2.50;2.20;;;;;;;10.00;91.95;102198.94;4975824;28;20035;-89
2022/10/04 02:13:23;;;;;;;2.88;2.30;;;;;;;9.98;91.66;102190.25;4976363;28;20042;-89
2022/10/04 02:15:48;;;;;;;2.92;2.10;;;;;;;9.94;92.02;102178.09;4976171;28;20379;-89
2022/10/04 02:18:19;;;;;;;2.90;2.20;;;;;;;9.93;91.75;102185.88;4976481;28;20019;-89
2022/10/04 02:20:49;;;;;;;3.10;2.20;;;;;;;9.89;91.89;102179.81;4976293;28;20116;-90
2022/10/04 02:23:18;;;;;;;2.55;2.03;;;;;;;9.84;91.71;102166.81;4975499;28;20034;-89
2022/10/04 02:25:43;;;;;;;2.67;1.98;;;;;;;9.82;91.88;102152.94;4976214;28;20113;-89
2022/10/04 02:28:17;;;;;;;3.10;2.30;;;;;;;9.84;92.01;102159.03;4976030;28;20110;-89
2022/10/04 02:33:38;;;;;;;2.38;1.90;;;;;;;9.81;92.29;102161.59;4976301;28;20042;-90
2022/10/04 02:36:07;;;;;;;1.98;1.88;;;;;;;9.79;92.29;102163.28;4975374;28;20122;-89
2022/10/04 02:38:40;;;;;;;1.65;1.55;;;;;;;9.78;92.35;102150.31;4975769;28;20074;-89
2022/10/04 02:41:23;;;;;;;1.73;1.63;;;;;;;9.74;92.47;102145.09;4976030;28;20050;-90
2022/10/04 02:43:51;;;;;;;2.28;2.05;;;;;;;9.70;93.28;102138.13;4975731;28;20086;-89
2022/10/04 02:46:24;;;;;;;2.40;2.15;;;;;;;9.66;93.31;102132.91;4975673;28;20404;-89
2022/10/04 02:48:59;;;;;;;2.35;2.13;;;;;;;9.63;92.97;102136.34;4976005;28;20567;-89
2022/10/04 02:51:32;;;;;;;3.38;2.00;;;;;;;9.57;93.13;102120.72;4975574;28;20023;-90
2022/10/04 02:54:11;;;;;;;2.85;2.15;;;;;;;9.52;93.25;102122.41;4975478;28;20030;-89
2022/10/04 02:56:38;;;;;;;1.90;1.80;;;;;;;9.48;93.14;102112.88;4975269;28;20039;-89
2022/10/04 02:59:05;;;;;;;2.38;2.17;;;;;;;9.43;93.39;102108.53;4975609;28;20051;-89
2022/10/04 03:01:49;;;;;;;;;;;;;;;9.41;93.25;102105.06;4976023;28;20055;-89
2022/10/04 03:04:15;;;;;;;2.45;2.17;;;;;;;9.42;93.22;102100.72;4974920;28;19918;-90
2022/10/04 03:06:44;;;;;;;3.22;2.40;;;;;;;9.41;93.12;102107.63;4975689;28;20034;-90
2022/10/04 03:09:23;;;;;;;2.92;2.20;;;;;;;9.40;93.06;102103.31;4975220;28;20031;-91
2022/10/04 03:11:50;;;;;;;3.22;2.28;;;;;;;9.37;93.02;102092.91;4975014;28;20559;-89
2022/10/04 03:14:20;;;;;;;2.40;2.20;;;;;;;9.40;93.12;102098.13;4975193;28;20480;-89
2022/10/04 03:16:48;;;;;;;3.70;2.30;;;;;;;9.37;92.97;102098.09;4975535;28;20070;-89
2022/10/04 03:19:23;;;;;;;2.90;2.47;;;;;;;9.38;92.85;102094.66;4974706;28;20089;-90
2022/10/04 03:22:09;;;;;;;3.38;2.90;;;;;;;9.36;92.82;102085.97;4975454;28;20027;-90
2022/10/04 03:25:01;;;;;;;3.10;2.50;;;;;;;9.35;92.88;102085.97;4975244;28;20077;-89
2022/10/04 03:27:34;;;;;;;2.40;2.20;;;;;;;9.30;92.72;102091.13;4975401;28;20081;-90
2022/10/04 03:30:03;;;;;;;3.15;2.70;;;;;;;9.30;92.73;102085.06;4974971;28;20023;-90
2022/10/04 03:32:29;;;;;;;2.78;2.40;;;;;;;9.25;92.61;102082.41;4974418;28;20102;-89
2022/10/04 03:34:57;;;;;;;2.95;2.55;;;;;;;9.24;92.71;102081.56;4975175;28;20058;-90
2022/10/04 03:37:36;;;;;;;3.55;2.40;;;;;;;9.23;92.98;102081.56;4975481;28;20041;-90
2022/10/04 03:40:07;;;;;;;3.15;2.45;;;;;;;9.19;92.74;102079.78;4974594;28;20050;-89
2022/10/04 03:42:35;;;;;;;2.60;2.40;;;;;;;9.18;92.99;102075.44;4975145;28;20070;-90
2022/10/04 03:45:28;;;;;;;2.47;2.28;;;;;;;9.16;92.96;102066.78;4974783;28;20059;-90
2022/10/04 03:48:03;;;;;;;2.63;2.25;;;;;;;9.13;92.98;102072.81;4971489;28;20458;-90
2022/10/04 03:50:37;;;;;;;2.92;2.40;;;;;;;9.11;92.85;102067.63;4975067;28;20113;-90
2022/10/04 03:53:43;;;;;;;2.88;2.42;;;;;;;9.09;93.04;102066.75;4974564;28;20471;-90
2022/10/04 03:56:19;;;;;;;2.78;2.45;;;;;;;9.07;92.96;102059.78;4934271;29;20036;-90
2022/10/04 03:58:54;;;;;;;3.53;2.60;;;;;;;9.06;92.84;102056.34;4934571;29;20127;-90
2022/10/04 04:01:34;;;;;;;4.60;2.70;;;;;;;9.05;92.76;102061.50;4934653;29;20043;-90
2022/10/04 04:04:03;;;;;;;3.03;2.50;;;;;;;9.02;92.81;102054.56;4949948;28;20129;-90
2022/10/04 04:07:01;;;;;;;3.20;2.30;;;;;;;9.01;92.93;102057.16;4974822;28;20471;-90
2022/10/04 04:09:46;;;;;;;2.75;2.38;;;;;;;8.98;92.85;102052.81;4975052;28;20035;-90
2022/10/04 04:12:25;;;;;;;3.22;2.70;;;;;;;8.95;92.93;102053.63;4955484;28;20038;-90
2022/10/04 04:14:53;;;;;;;2.88;2.53;;;;;;;8.95;92.77;102063.13;4954656;29;20089;-90
2022/10/04 04:17:24;;;;;;;4.07;3.13;;;;;;;8.92;93.32;102063.06;4955190;29;20027;-90
2022/10/04 04:19:50;;;;;;;4.13;2.88;;;;;;;8.90;93.06;102059.59;4955190;29;20035;-90
2022/10/04 04:22:17;;;;;;;5.10;3.00;;;;;;;8.90;93.14;102057.00;4955297;29;20110;-90
2022/10/04 04:24:48;;;;;;;2.95;2.65;;;;;;;8.88;93.13;102061.31;4957650;28;20034;-90
2022/10/04 04:27:16;;;;;;;3.78;2.70;;;;;;;8.86;93.32;102058.69;4958795;29;20098;-90
2022/10/04 04:29:56;;;;;;;3.50;2.60;;;;;;;8.86;92.76;102061.28;4958275;28;20032;-90
2022/10/04 04:32:34;;;;;;;2.60;2.40;;;;;;;8.85;93.01;102056.97;4959358;29;20039;-90
2022/10/04 04:35:06;;;;;;;3.83;2.50;;;;;;;8.85;93.19;102056.09;4973774;28;20027;-89
2022/10/04 04:37:36;;;;;;;3.03;2.40;;;;;;;8.81;93.24;102056.06;4977964;28;20082;-90
2022/10/04 04:40:31;;;;;;;3.28;2.47;;;;;;;8.84;93.32;102054.38;4978174;28;20103;-90
2022/10/04 04:43:08;;;;;;;2.90;2.15;;;;;;;8.83;93.30;102053.50;4972904;28;20046;-90
2022/10/04 04:45:35;;;;;;;3.17;2.38;;;;;;;8.81;93.46;102045.72;4978006;28;20034;-90
2022/10/04 04:48:16;;;;;;;2.78;2.33;;;;;;;8.82;93.51;102046.59;4977854;28;20535;-90
2022/10/04 04:50:46;;;;;;;2.50;2.30;;;;;;;8.81;93.78;102043.13;4977689;28;20464;-90
2022/10/04 04:53:25;;;;;;;2.65;2.20;;;;;;;8.81;93.66;102040.53;4977499;28;20026;-89
2022/10/04 04:56:02;;;;;;;5.03;3.00;;;;;;;8.84;94.76;102036.25;4976890;28;20054;-88
2022/10/04 04:58:32;;;;;;;3.70;2.60;;;;;;;8.84;94.13;102033.66;4977812;28;20022;-89
2022/10/04 05:01:04;;;;;;;3.20;2.40;;;;;;;8.85;93.80;102035.41;4977610;28;20026;-90
2022/10/04 05:03:33;;;;;;;2.80;2.45;;;;;;;8.83;93.87;102037.09;4977406;28;20051;-90
2022/10/04 05:06:01;;;;;;;2.50;2.30;;;;;;;8.85;94.07;102033.66;4977472;28;20085;-90
2022/10/04 05:08:29;;;;;;;2.72;2.25;;;;;;;8.88;93.98;102040.63;4977788;28;20046;-89
2022/10/04 05:11:15;;;;;;;3.22;2.28;;;;;;;8.87;94.04;102039.72;4977029;28;20027;-88
2022/10/04 05:13:48;;;;;;;3.28;2.10;;;;;;;8.87;93.84;102034.56;4977483;28;20427;-89
2022/10/04 05:16:53;;;;;;;2.65;2.20;;;;;;;8.88;93.84;102045.78;4977218;28;20027;-90
2022/10/04 05:19:29;;;;;;;2.40;2.20;;;;;;;8.89;93.91;102044.94;4976454;28;20074;-89
2022/10/04 05:21:57;;;;;;;3.28;2.47;;;;;;;8.87;93.79;102047.50;4977456;28;20552;-89
2022/10/04 05:24:45;;;;;;;2.95;2.40;;;;;;;8.86;93.78;102042.31;4977100;28;20045;-89
2022/10/04 05:27:22;;;;;;;4.13;2.50;;;;;;;8.84;93.66;102041.41;4976915;28;20027;-89
2022/10/04 05:30:12;;;;;;;3.65;2.60;;;;;;;8.81;93.87;102043.13;4977039;28;20031;-88
2022/10/04 05:32:46;;;;;;;3.00;2.50;;;;;;;8.77;93.86;102041.38;4976503;28;20085;-89
2022/10/04 05:35:18;;;;;;;3.00;2.50;;;;;;;8.76;93.74;102044.81;4976385;28;20479;-89
2022/10/04 05:38:04;;;;;;;3.03;2.30;;;;;;;8.75;93.93;102037.88;4977096;28;20387;-90
2022/10/04 05:41:04;;;;;;;2.58;2.10;;;;;;;8.73;93.62;102043.88;4975853;28;20069;-86
2022/10/04 05:43:49;;;;;;;2.60;2.25;;;;;;;8.70;93.81;102042.13;4958941;28;20068;-86
2022/10/04 05:46:23;;;;;;;3.42;2.58;;;;;;;8.68;93.96;102046.41;4956018;29;20034;-83
2022/10/04 05:48:54;;;;;;;3.63;2.50;;;;;;;8.70;93.85;102052.47;4964505;28;20038;-86
2022/10/04 05:51:54;;;;;;;3.33;2.40;;;;;;;8.70;93.67;102052.47;4975710;28;20043;-87
2022/10/04 05:54:25;;;;;;;2.97;2.33;;;;;;;8.67;94.09;102049.84;4973548;28;20046;-86
2022/10/04 05:57:08;;;;;;;2.60;2.30;;;;;;;8.68;93.93;102056.75;4975545;28;20471;-86
2022/10/04 06:00:08;;;;;;;2.60;2.15;;;;;;;8.68;94.00;102053.31;4975667;28;20033;-86
2022/10/04 06:02:42;;;;;;;2.53;2.20;;;;;;;8.66;94.19;102061.06;4969229;28;20114;-88
2022/10/04 06:05:29;;;;;;;2.25;2.05;;;;;;;8.67;93.94;102056.75;4975620;28;20055;-88
2022/10/04 06:08:07;;;;;;;2.08;1.90;;;;;;;8.65;94.07;102055.00;4976475;28;20026;-89
2022/10/04 06:11:05;;;;;;;4.22;2.22;;;;;;;8.65;94.28;102059.34;4976092;28;20027;-88
2022/10/04 06:14:16;;;;;;;2.03;1.83;;;;;;;8.63;94.17;102063.63;4955304;28;20042;-88
2022/10/04 06:17:11;;;;;;;2.40;2.00;;;;;;;8.64;93.87;102068.81;4965318;28;20031;-88
2022/10/04 06:19:52;;;;;;;2.63;1.90;;;;;;;8.65;94.80;102067.97;4976236;28;20031;-88
2022/10/04 06:22:22;;;;;;;2.30;2.10;;;;;;;8.66;94.73;102066.25;4976188;28;20534;-88
2022/10/04 06:24:52;;;;;;;1.88;1.73;;;;;;;8.68;94.54;102068.84;4975835;28;20038;-89
2022/10/04 06:27:23;;;;;;;1.90;1.60;;;;;;;8.69;94.58;102060.22;4975612;28;20029;-88
2022/10/04 06:29:54;;;;;;;1.67;1.58;;;;;;;8.72;94.23;102065.47;4965081;28;20030;-87
2022/10/04 06:32:38;;;;;;;1.70;1.60;;;;;;;8.77;94.52;102061.19;4990334;23;20138;-88
2022/10/04 06:35:34;;;;;;;2.30;1.63;;;;;;;8.80;95.22;102063.81;4974661;28;20082;-88
2022/10/04 06:38:22;;;;;;;2.47;2.15;;;;;;;8.82;95.80;102059.53;4975457;28;20026;-92
2022/10/04 06:41:15;;;;;;;2.15;1.98;;;;;;;8.84;95.02;102051.78;4975368;28;20468;-85
2022/10/04 06:43:58;;;;;;;2.17;2.00;;;;;;;8.88;95.04;102050.97;4974407;28;20054;-85
2022/10/04 06:46:33;;;;;;;1.95;1.75;;;;;;;8.90;94.78;102050.13;4973653;28;20038;-85
2022/10/04 06:49:12;;;;;;;2.08;1.90;;;;;;;8.93;94.81;102052.75;4973825;28;20118;-85
2022/10/04 06:51:55;;;;;;;2.40;1.80;;;;;;;8.96;94.66;102046.75;4974933;28;20033;-85
2022/10/04 06:54:42;;;;;;;2.58;2.00;;;;;;;8.99;94.68;102049.38;4974365;28;20030;-85
2022/10/04 06:57:51;;;;;;;2.35;1.95;;;;;;;9.04;94.50;102052.00;4974104;28;20035;-85
2022/10/04 07:00:22;;;;;;;2.20;2.00;;;;;;;9.06;94.32;102050.31;4974555;28;20027;-85
2022/10/04 07:02:57;;;;;;;3.33;2.20;;;;;;;9.10;94.64;102055.53;4973843;28;20038;-84
2022/10/04 07:06:03;;;;;;;3.10;2.30;;;;;;;9.11;94.75;102046.03;4974518;28;20038;-86
2022/10/04 07:08:32;;;;;;;2.25;1.75;;;;;;;9.12;95.18;102040.00;4969450;28;20041;-85
2022/10/04 07:11:27;;;;;;;2.00;1.80;;;;;;;9.13;94.75;102033.97;4973558;28;20031;-86
2022/10/04 07:14:02;;;;;;;3.00;2.33;;;;;;;9.16;95.16;102040.88;4973796;28;20027;-86
2022/10/04 07:16:30;;;;;;;2.40;2.20;;;;;;;9.17;95.06;102037.44;4974454;28;20523;-85
2022/10/04 07:19:13;;;;;;;4.47;2.78;;;;;;;9.20;96.46;102034.91;4973455;28;20027;-85
2022/10/04 07:22:04;;;;;;;5.10;2.80;;;;;;;9.27;95.94;102031.50;4973959;28;20467;-85
2022/10/04 07:24:49;;;;;;;4.80;2.83;;;;;;;9.36;96.42;102031.56;4972564;28;20118;-86
2022/10/04 07:27:20;;;;;;;6.38;3.20;;;;;;;9.45;96.63;102027.34;4953778;28;20035;-86
2022/10/04 07:29:53;;;;;;;5.13;3.08;;;;;;;9.52;96.16;102024.78;4974331;28;20054;-85
2022/10/04 07:32:33;;;;;;;3.92;2.90;;;;;;;9.60;95.96;102032.63;4973208;28;20074;-85
2022/10/04 07:35:12;;;;;;;4.13;2.83;;;;;;;9.73;94.94;102031.03;4974075;28;20023;-86
2022/10/04 07:38:18;;;;;;;5.47;3.25;;;;;;;9.82;96.45;102035.38;4974023;28;20019;-86
2022/10/04 07:41:08;;;;;;;6.32;3.63;;;;;;;9.92;96.23;102032.00;4954349;28;20118;-86
2022/10/04 07:43:45;;;;;;;5.22;3.20;;;;;;;10.01;96.21;102037.28;4955079;29;20023;-85
2022/10/04 07:46:16;;;;;;;3.55;2.78;;;;;;;10.14;95.95;102045.97;4953860;29;20039;-85
2022/10/04 07:48:42;;;;;;;3.92;2.70;;;;;;;10.22;95.75;102048.63;4960983;28;20053;-85
2022/10/04 07:51:20;;;;;;;2.93;2.50;;;;;;;10.28;95.40;102046.03;4973856;28;20022;-85
2022/10/04 07:54:14;;;;;;;3.25;2.33;;;;;;;10.38;95.27;102046.13;4973419;28;20034;-85
2022/10/04 07:56:46;;;;;;;4.85;2.90;;;;;;;10.45;95.96;102040.97;4974014;28;20045;-85
2022/10/04 07:59:33;;;;;;;5.75;3.30;;;;;;;10.56;95.60;102035.84;4976482;28;20514;-85
2022/10/04 08:02:19;;;;;;;4.70;3.35;;;;;;;10.68;95.85;102034.16;4977322;28;20031;-85
2022/10/04 08:05:23;;;;;;;4.50;2.95;;;;;;;10.81;94.87;102033.31;4978094;28;20446;-85
2022/10/04 08:08:19;;;;;;;5.43;3.03;;;;;;;10.92;94.76;102031.59;4976615;28;20061;-85
2022/10/04 08:11:16;;;;;;;5.90;3.90;;;;;;;11.06;94.08;102030.78;4977710;28;20031;-86
2022/10/04 08:13:49;;;;;;;6.05;3.50;;;;;;;11.17;94.16;102031.66;4977023;28;20034;-85
2022/10/04 08:16:42;;;;;;;6.22;3.80;;;;;;;11.30;92.96;102024.75;4977671;28;20037;-86
2022/10/04 08:19:34;;;;;;;5.45;3.53;;;;;;;11.43;93.33;102013.47;4977548;28;20035;-85
2022/10/04 08:22:16;;;;;;;6.32;3.83;;;;;;;11.56;92.52;102016.94;4976484;28;20034;-86
2022/10/04 08:24:54;;;;;;;7.57;3.80;;;;;;;11.71;92.52;102022.97;4977486;28;20427;-86
2022/10/04 08:31:11;;;;;;;8.35;3.85;;;;;;;12.04;91.01;102023.84;4977490;28;20045;-85
2022/10/04 08:33:56;;;;;;;7.13;4.10;;;;;;;12.17;90.44;102027.28;4976525;28;20133;-85
2022/10/04 08:36:39;;;;;;;5.15;3.58;;;;;;;12.21;89.29;102029.00;4976280;28;20118;-86
2022/10/04 08:39:40;;;;;;;5.57;3.45;;;;;;;12.16;89.83;102036.81;4977090;28;20388;-86
2022/10/04 08:42:14;;;;;;;6.10;2.97;;;;;;;12.14;90.16;102028.16;4955776;28;20069;-86
2022/10/04 08:45:10;;;;;;;7.55;3.85;;;;;;;12.24;88.99;102038.53;4977316;28;20026;-86
2022/10/04 08:47:57;;;;;;;7.47;3.60;;;;;;;12.39;87.26;102028.06;4977228;28;20030;-86
2022/10/04 08:50:47;;;;;;;6.38;3.25;;;;;;;12.52;89.08;102034.94;4976216;28;20372;-87
2022/10/04 08:53:45;;;;;;;4.53;2.90;;;;;;;12.71;89.27;102034.00;4976839;28;20427;-85
2022/10/04 08:56:32;;;;;;;5.65;3.17;;;;;;;12.86;87.70;102031.31;4973064;28;20037;-85
2022/10/04 08:59:23;;;;;;;8.35;3.85;;;;;;;13.08;87.67;102037.25;4974759;28;20042;-85
2022/10/04 09:02:07;;;;;;;8.38;4.40;;;;;;;13.18;85.28;102034.56;4976643;28;20031;-86
2022/10/04 09:04:41;;;;;;;7.97;4.10;;;;;;;13.25;85.41;102023.25;4976097;28;20023;-86
2022/10/04 09:07:45;;;;;;;9.35;4.28;;;;;;;13.37;85.44;102024.88;4976311;28;20089;-86
2022/10/04 09:10:47;;;;;;;8.57;3.95;;;;;;;13.48;85.52;102033.50;4974771;28;20035;-85
2022/10/04 09:13:43;;;;;;;8.70;3.80;;;;;;;13.59;84.36;102043.88;4976360;28;20030;-85
2022/10/04 09:16:30;;;;;;;6.78;3.50;;;;;;;13.71;84.77;102043.75;4976024;28;20537;-85
2022/10/04 09:19:08;;;;;;;7.40;3.67;;;;;;;13.84;84.26;102038.44;4976421;28;20102;-86
2022/10/04 09:22:00;;;;;;;7.05;4.00;;;;;;;14.00;83.01;102033.91;4976583;28;20023;-86
2022/10/04 09:24:45;;;;;;;7.50;4.03;;;;;;;14.15;82.67;102031.13;4975204;28;20039;-85
2022/10/04 09:27:19;;;;;;;8.07;4.00;;;;;;;14.27;84.35;102024.91;4976360;28;20406;-86
2022/10/04 09:30:11;;;;;;;8.05;4.20;;;;;;;14.36;81.54;102026.53;4976246;28;20029;-86
2022/10/04 09:32:56;;;;;;;11.90;5.00;;;;;;;14.44;79.89;102027.31;4975322;28;20136;-86
2022/10/04 09:35:59;;;;;;;9.35;4.60;;;;;;;14.55;80.36;102021.94;4976309;28;20114;-86
2022/10/04 09:38:46;;;;;;;7.15;3.50;;;;;;;14.70;81.65;102012.19;4975391;28;20169;-86
2022/10/04 09:41:33;;;;;;;5.38;3.58;;;;;;;14.82;80.19;102015.50;4975842;28;20089;-85
2022/10/04 09:44:32;;;;;;;5.60;3.30;;;;;;;14.92;79.54;102000.56;4975683;28;20106;-86
2022/10/04 09:47:11;;;;;;;10.00;4.70;;;;;;;15.02;80.65;101996.06;4956810;28;20053;-85
2022/10/04 09:49:54;;;;;;;10.40;4.78;;;;;;;15.11;79.86;102000.25;4972362;28;20031;-85
2022/10/04 09:52:31;;;;;;;8.30;4.38;;;;;;;15.24;79.21;102000.94;4973405;28;20091;-85
2022/10/04 09:55:12;;;;;;;9.45;3.85;;;;;;;15.36;78.85;102011.22;4974101;28;20390;-86
2022/10/04 09:57:48;;;;;;;7.25;3.90;;;;;;;15.43;76.93;102004.97;4973863;28;20046;-85
2022/10/04 10:00:22;;;;;;;10.15;4.60;;;;;;;15.48;76.81;102017.97;4973178;28;20121;-86
2022/10/04 10:02:51;;;;;;;6.88;4.20;;;;;;;15.56;76.85;102020.47;4975236;28;20498;-86
2022/10/04 10:05:34;;;;;;;8.90;4.13;;;;;;;15.65;76.43;102007.22;4975858;28;20027;-85
2022/10/04 10:08:11;;;;;;;9.05;4.47;;;;;;;15.72;75.34;102007.97;4975400;28;20089;-86
2022/10/04 10:14:13;;;;;;;7.90;4.15;;;;;;;15.88;75.72;102003.34;4975060;28;20506;-85
2022/10/04 10:16:59;;;;;;;9.93;4.65;;;;;;;15.96;74.48;102005.81;4975421;28;20117;-86
2022/10/04 10:19:30;;;;;;;7.45;3.83;;;;;;;16.04;74.58;102007.38;4975192;28;20058;-85
2022/10/04 10:22:11;;;;;;;7.95;3.90;;;;;;;16.14;74.58;102000.19;4973655;28;20031;-86
2022/10/04 10:25:04;;;;;;;6.80;3.33;;;;;;;16.24;75.11;101992.16;4975324;28;20031;-85
2022/10/04 10:27:51;;;;;;;5.93;3.40;;;;;;;16.31;75.40;101988.53;4974575;28;20061;-85
2022/10/04 10:30:24;;;;;;;5.45;3.17;;;;;;;16.43;73.31;101987.38;4975418;28;20042;-85
2022/10/04 10:33:25;;;;;;;8.15;3.80;;;;;;;16.52;75.26;101992.44;4974284;28;20470;-85
2022/10/04 10:36:20;;;;;;;5.88;3.80;;;;;;;16.62;72.44;101980.00;4966642;28;20137;-86
2022/10/04 10:39:14;;;;;;;7.03;3.55;;;;;;;16.73;72.77;101992.84;4974932;28;20515;-85
2022/10/04 10:42:09;;;;;;;4.45;3.00;;;;;;;16.84;73.38;101993.44;4974146;28;20019;-85
2022/10/04 10:44:47;;;;;;;5.37;3.33;;;;;;;16.87;73.61;101989.91;4974851;28;20035;-85
2022/10/04 10:47:49;;;;;;;4.97;3.00;;;;;;;16.83;69.34;101989.13;4974354;28;20045;-85
2022/10/04 10:50:57;;;;;;;6.50;3.70;;;;;;;16.89;72.79;101999.47;4974755;28;20035;-85
2022/10/04 10:53:29;;;;;;;6.47;3.40;;;;;;;17.01;72.05;101990.47;4955399;29;20444;-85
2022/10/04 10:56:18;;;;;;;6.88;3.45;;;;;;;17.11;71.42;102006.84;4954462;28;20110;-86
2022/10/04 10:59:02;;;;;;;8.20;3.80;;;;;;;17.16;65.21;101993.63;4955544;29;20381;-86
2022/10/04 11:02:05;;;;;;;8.40;4.03;;;;;;;17.14;66.57;101985.81;4955464;28;20054;-85
2022/10/04 11:04:44;;;;;;;6.15;3.28;;;;;;;17.06;68.21;101978.13;4955238;29;20481;-85
2022/10/04 11:07:31;;;;;;;5.07;3.08;;;;;;;17.03;69.14;101983.44;4955248;28;20038;-85
2022/10/04 11:10:25;;;;;;;4.90;2.85;;;;;;;17.09;70.72;101980.66;4954007;29;20039;-85
2022/10/04 11:13:09;;;;;;;4.43;3.00;;;;;;;17.20;69.55;101979.53;4974012;28;20042;-85
2022/10/04 11:16:06;;;;;;;6.05;3.17;;;;;;;17.20;70.03;101961.19;4974316;28;20090;-85
2022/10/04 11:18:50;;;;;;;4.97;3.05;;;;;;;17.25;70.05;101961.91;4974402;28;20472;-85
2022/10/04 11:21:34;;;;;;;6.00;3.20;;;;;;;17.32;66.63;101962.63;4974425;28;20537;-85
2022/10/04 11:24:13;;;;;;;6.20;3.35;;;;;;;17.38;66.81;101968.56;4973499;28;20069;-85
2022/10/04 11:27:02;;;;;;;5.82;3.10;;;;;;;17.50;69.74;101966.53;4974497;28;20023;-84
2022/10/04 11:29:30;;;;;;;5.03;3.20;;;;;;;17.53;68.40;101956.78;4967678;28;20050;-85
2022/10/04 11:32:20;;;;;;;4.88;3.00;;;;;;;17.54;68.92;101945.41;4972799;28;20026;-89
2022/10/04 11:35:02;;;;;;;4.78;3.00;;;;;;;17.53;67.47;101938.44;4974094;28;20031;-89
2022/10/04 11:37:40;;;;;;;7.57;3.60;;;;;;;17.49;68.24;101946.44;4973202;28;20114;-86
2022/10/04 11:40:24;;;;;;;7.28;3.60;;;;;;;17.50;64.44;101941.16;4973942;28;20546;-87
2022/10/04 11:43:15;;;;;;;7.63;3.95;;;;;;;17.47;66.08;101938.59;4973806;28;20077;-85
2022/10/04 11:46:15;;;;;;;6.53;3.45;;;;;;;17.54;67.81;101936.69;4954327;28;20086;-86
2022/10/04 11:49:02;;;;;;;7.60;3.70;;;;;;;17.56;67.94;101934.88;4955126;28;20028;-86
2022/10/04 11:51:58;;;;;;;4.35;2.90;;;;;;;17.52;65.61;101931.44;4954032;29;20038;-86
2022/10/04 11:54:44;;;;;;;;;;;;;;;17.47;64.15;101928.09;4955241;29;20084;-85
2022/10/04 11:57:30;;;;;;;;;;;;;;;17.41;63.84;101925.63;4955356;28;19918;-94
2022/10/04 12:00:16;;;;;;;6.82;3.42;;;;;;;17.40;65.71;101918.66;4953775;28;20335;-82
2022/10/04 12:03:19;;;;;;;4.40;3.15;;;;;;;17.44;65.41;101925.56;4954934;28;20031;-81
2022/10/04 12:06:06;;;;;;;4.93;2.85;;;;;;;17.45;67.44;101928.13;4964946;23;20053;-87
2022/10/04 12:08:47;;;;;;;3.63;2.50;;;;;;;17.52;67.18;101931.44;4973750;28;20053;-85
2022/10/04 12:11:15;;;;;;;2.30;2.10;;;;;;;17.57;68.78;101931.31;4973351;28;20038;-85
2022/10/04 12:14:23;;;;;;;5.80;2.72;;;;;;;17.57;65.84;101931.31;4973245;28;20041;-85
2022/10/04 12:17:21;;;;;;;5.68;2.90;;;;;;;17.57;66.05;101932.19;4954647;29;20098;-87
2022/10/04 12:20:17;;;;;;;3.20;2.65;;;;;;;17.58;66.95;101919.91;4953615;29;20491;-85
2022/10/04 12:23:10;;;;;;;5.32;2.65;;;;;;;17.56;66.93;101919.13;4954549;29;20020;-85
2022/10/04 12:25:57;;;;;;;4.93;2.63;;;;;;;17.53;67.09;101914.81;4954654;29;20027;-86
2022/10/04 12:28:50;;;;;;;3.10;2.50;;;;;;;17.50;67.44;101911.41;4954009;29;20019;-86
2022/10/04 12:31:21;;;;;;;3.40;2.50;;;;;;;17.45;67.50;101914.16;4954771;29;20039;-86
2022/10/04 12:34:10;;;;;;;4.65;2.70;;;;;;;17.32;63.50;101900.53;4953589;29;20498;-86
2022/10/04 12:36:47;;;;;;;3.17;2.63;;;;;;;17.29;66.75;101903.22;4954507;29;20035;-85
2022/10/04 12:39:30;;;;;;;3.17;2.67;;;;;;;17.28;66.77;101897.09;4958707;28;20042;-89
2022/10/04 12:42:16;;;;;;;2.83;2.53;;;;;;;17.28;65.96;101888.38;4972684;28;20034;-85